Terminal Aerodrome Forecast
Issued by NWS Northern Indiana

Home | Current Version | Previous Version | Graphics & Text | Print | Product List | Glossary On
Versions: 1 2 3 4 5 6 7 8 9 10 11 12 13 14 15 16 17 18
000
FTUS43 KIWX 011508 AAA
TAFFWA
TAF AMD
KFWA 011508Z 0115/0212 07005KT 1SM BR OVC003
     FM011630 04005KT 3SM BR OVC005
     FM011900 02007KT 5SM BR VCSH SCT008 OVC015
     FM012100 03007KT 4SM -SHRA BR BKN025
     FM020200 04008KT 3SM -SHRA BR OVC015
     FM020500 05008KT 3SM -SHRA BR OVC008=

USA.gov is the U.S. government's official web portal to all federal, state and local government web resources and services.